createdAt,value
2023-04-07T00:01:17.541Z,17.05
2023-04-07T00:03:44.320Z,15.40
2023-04-07T00:06:10.804Z,10.88
2023-04-07T00:08:37.285Z,16.92
2023-04-07T00:11:03.795Z,13.60
2023-04-07T00:13:30.906Z,13.77
2023-04-07T00:15:57.521Z,15.88
2023-04-07T00:18:23.953Z,11.60
2023-04-07T00:20:50.477Z,14.48
2023-04-07T00:23:16.928Z,11.73
2023-04-07T00:25:43.545Z,12.00
2023-04-07T00:28:10.174Z,15.13
2023-04-07T00:30:36.604Z,16.23
2023-04-07T00:33:03.223Z,12.27
2023-04-07T00:35:30.037Z,10.88
2023-04-07T00:37:57.020Z,12.82
2023-04-07T00:40:23.552Z,11.25
2023-04-07T00:42:49.957Z,15.15
2023-04-07T00:45:16.315Z,12.50
2023-04-07T00:47:42.855Z,13.95
2023-04-07T00:50:09.649Z,15.50
2023-04-07T00:52:36.494Z,19.15
2023-04-07T00:55:03.385Z,17.50
2023-04-07T00:57:29.832Z,13.98
2023-04-07T00:59:56.464Z,18.50
2023-04-07T01:02:37.775Z,16.92
2023-04-07T01:05:16.200Z,16.85
2023-04-07T01:07:45.524Z,16.70
2023-04-07T01:10:17.351Z,13.70
2023-04-07T01:12:52.692Z,16.25
2023-04-07T01:15:22.565Z,14.70
2023-04-07T01:17:56.101Z,18.20
2023-04-07T01:20:23.953Z,18.42
2023-04-07T01:22:58.381Z,19.63
2023-04-07T01:26:04.496Z,16.05
2023-04-07T01:29:12.100Z,17.20
2023-04-07T01:31:41.417Z,16.80
2023-04-07T01:34:12.537Z,16.25
2023-04-07T01:36:39.636Z,16.00
2023-04-07T01:39:07.309Z,18.70
2023-04-07T01:41:34.409Z,17.05
2023-04-07T01:44:03.098Z,14.98
2023-04-07T01:46:29.815Z,16.30
2023-04-07T01:48:57.110Z,16.08
2023-04-07T01:51:24.492Z,14.85
2023-04-07T01:53:51.220Z,13.80
2023-04-07T01:56:17.780Z,12.55
2023-04-07T01:58:44.220Z,18.45
2023-04-07T02:01:11.072Z,14.18
2023-04-07T02:03:52.379Z,25.77
2023-04-07T02:06:24.549Z,16.00
2023-04-07T02:08:57.434Z,15.07
2023-04-07T02:11:24.947Z,16.38
2023-04-07T02:13:54.784Z,14.23
2023-04-07T02:16:22.779Z,17.08
2023-04-07T02:18:50.970Z,13.43
2023-04-07T02:21:19.426Z,19.58
2023-04-07T02:23:46.898Z,12.57
2023-04-07T02:26:13.527Z,14.45
2023-04-07T02:28:40.089Z,13.73
2023-04-07T02:31:06.550Z,14.60
2023-04-07T02:33:33.053Z,16.00
2023-04-07T02:35:59.419Z,12.88
2023-04-07T02:38:25.908Z,9.88
2023-04-07T02:40:52.412Z,13.55
2023-04-07T02:43:20.769Z,16.95
2023-04-07T02:45:47.370Z,11.60
2023-04-07T02:48:13.774Z,15.00
2023-04-07T02:50:41.833Z,11.75
2023-04-07T02:53:08.244Z,14.80
2023-04-07T02:55:34.681Z,14.45
2023-04-07T02:58:01.203Z,14.57
2023-04-07T03:00:27.590Z,17.55
2023-04-07T03:02:54.191Z,23.08
2023-04-07T03:05:20.859Z,12.98
2023-04-07T03:07:47.374Z,13.70
2023-04-07T03:10:13.925Z,14.63
2023-04-07T03:12:40.371Z,17.77
2023-04-07T03:15:07.425Z,12.93
2023-04-07T03:17:33.914Z,12.75
2023-04-07T03:20:00.361Z,9.60
2023-04-07T03:22:26.760Z,16.95
2023-04-07T03:24:53.161Z,11.88
2023-04-07T03:27:20.435Z,12.30
2023-04-07T03:29:47.158Z,14.15
2023-04-07T03:32:13.613Z,19.10
2023-04-07T03:34:40.445Z,14.35
2023-04-07T03:37:06.825Z,12.63
2023-04-07T03:39:33.216Z,18.13
2023-04-07T03:41:59.667Z,10.18
2023-04-07T03:44:28.397Z,16.23
2023-04-07T03:46:54.962Z,14.10
2023-04-07T03:49:22.121Z,10.02
2023-04-07T03:51:48.599Z,14.35
2023-04-07T03:54:15.460Z,18.27
2023-04-07T03:56:42.054Z,15.75
2023-04-07T03:59:08.590Z,14.05
2023-04-07T04:01:36.048Z,18.00
2023-04-07T04:04:03.185Z,16.52
2023-04-07T04:06:29.703Z,11.68
2023-04-07T04:08:56.050Z,10.73
2023-04-07T04:11:22.615Z,8.10
2023-04-07T04:13:49.021Z,14.73
2023-04-07T04:16:15.643Z,6.15
2023-04-07T04:18:42.145Z,11.93
2023-04-07T04:21:09.524Z,10.60
2023-04-07T04:23:36.104Z,11.57
2023-04-07T04:26:03.974Z,13.30
2023-04-07T04:28:31.888Z,7.95
2023-04-07T04:30:58.336Z,6.55
2023-04-07T04:33:25.038Z,8.27
2023-04-07T04:35:51.573Z,13.07
2023-04-07T04:38:19.468Z,7.93
2023-04-07T04:40:46.236Z,9.10
2023-04-07T04:43:12.716Z,9.73
2023-04-07T04:45:39.120Z,17.70
2023-04-07T04:48:06.275Z,8.23
2023-04-07T04:50:32.755Z,11.27
2023-04-07T04:52:59.146Z,9.20
2023-04-07T04:55:25.805Z,8.52
2023-04-07T04:57:52.222Z,9.00
2023-04-07T05:00:19.175Z,8.90
2023-04-07T05:02:46.851Z,6.65
2023-04-07T05:05:13.685Z,8.65
2023-04-07T05:07:40.476Z,6.95
2023-04-07T05:10:08.082Z,17.83
2023-04-07T05:12:34.657Z,8.95
2023-04-07T05:15:01.215Z,9.18
2023-04-07T05:17:27.651Z,8.45
2023-04-07T05:19:54.082Z,5.13
2023-04-07T05:22:20.792Z,8.18
2023-04-07T05:24:47.290Z,8.40
2023-04-07T05:27:13.637Z,7.15
2023-04-07T05:29:39.992Z,7.25
2023-04-07T05:32:06.470Z,7.13
2023-04-07T05:34:32.861Z,8.10
2023-04-07T05:36:59.437Z,8.10
2023-04-07T05:39:26.219Z,7.15
2023-04-07T05:41:52.719Z,11.18
2023-04-07T05:44:19.254Z,6.70
2023-04-07T05:46:45.744Z,10.23
2023-04-07T05:49:19.486Z,8.15
2023-04-07T05:51:47.558Z,11.07
2023-04-07T05:54:15.415Z,8.93
2023-04-07T05:56:41.829Z,7.65
2023-04-07T05:59:08.164Z,8.93
2023-04-07T06:01:34.585Z,10.82
2023-04-07T06:04:01.524Z,8.10
2023-04-07T06:06:28.626Z,8.75
2023-04-07T06:08:55.283Z,7.13
2023-04-07T06:11:21.978Z,8.60
2023-04-07T06:13:48.546Z,11.73
2023-04-07T06:16:16.331Z,9.82
2023-04-07T06:18:43.827Z,11.27
2023-04-07T06:21:10.772Z,10.00
2023-04-07T06:23:37.316Z,12.48
2023-04-07T06:26:03.727Z,11.93
2023-04-07T06:28:30.297Z,10.52
2023-04-07T06:30:58.290Z,8.70
2023-04-07T06:33:25.752Z,8.60
2023-04-07T06:35:52.729Z,8.77
2023-04-07T06:38:19.321Z,8.85
2023-04-07T06:40:45.912Z,11.48
2023-04-07T06:43:12.348Z,9.77
2023-04-07T06:45:38.705Z,14.65
2023-04-07T06:48:05.619Z,11.68
2023-04-07T06:50:32.138Z,9.15
2023-04-07T06:52:58.600Z,9.68
2023-04-07T06:55:25.194Z,10.48
2023-04-07T06:57:52.361Z,7.78
2023-04-07T07:00:19.249Z,12.68
2023-04-07T07:02:45.765Z,10.90
2023-04-07T07:05:12.301Z,10.02
2023-04-07T07:07:38.777Z,8.35
2023-04-07T07:10:06.437Z,13.38
2023-04-07T07:12:33.378Z,13.95
2023-04-07T07:14:59.753Z,13.43
2023-04-07T07:17:27.609Z,14.05
2023-04-07T07:19:54.125Z,8.43
2023-04-07T07:22:20.715Z,12.68
2023-04-07T07:24:47.433Z,10.90
2023-04-07T07:27:13.886Z,7.82
2023-04-07T07:29:40.333Z,8.25
2023-04-07T07:32:06.796Z,8.45
2023-04-07T07:34:33.445Z,9.43
2023-04-07T07:36:59.954Z,12.13
2023-04-07T07:39:27.442Z,6.07
2023-04-07T07:41:53.896Z,5.95
2023-04-07T07:44:20.373Z,8.45
2023-04-07T07:46:46.900Z,6.72
2023-04-07T07:49:13.331Z,5.57
2023-04-07T07:51:39.901Z,5.05
2023-04-07T07:54:06.314Z,6.53
2023-04-07T07:56:32.722Z,13.40
2023-04-07T07:58:59.159Z,8.32
2023-04-07T08:01:25.640Z,7.70
2023-04-07T08:03:52.597Z,10.27
2023-04-07T08:06:19.402Z,8.25
2023-04-07T08:08:46.158Z,8.95
2023-04-07T08:11:12.913Z,5.65
2023-04-07T08:13:39.935Z,8.00
2023-04-07T08:16:07.069Z,9.55
2023-04-07T08:18:33.657Z,12.23
2023-04-07T08:21:00.350Z,7.63
2023-04-07T08:23:27.058Z,9.73
2023-04-07T08:25:53.476Z,12.02
2023-04-07T08:28:21.092Z,7.30
2023-04-07T08:30:47.501Z,9.52
2023-04-07T08:33:13.883Z,6.57
2023-04-07T08:35:40.308Z,13.65
2023-04-07T08:38:08.520Z,116.03
2023-04-07T08:40:35.304Z,39.38
2023-04-07T08:43:08.282Z,10.55
2023-04-07T08:45:40.372Z,8.75
2023-04-07T08:50:38.631Z,8.73
2023-04-07T08:53:09.249Z,7.20
2023-04-07T08:55:36.403Z,8.43
2023-04-07T08:58:04.148Z,9.63
2023-04-07T09:00:31.891Z,9.43
2023-04-07T09:03:00.424Z,7.38
2023-04-07T09:05:27.281Z,5.60
2023-04-07T09:07:53.739Z,8.88
2023-04-07T09:10:20.226Z,5.57
2023-04-07T09:12:46.923Z,6.10
2023-04-07T09:15:13.423Z,5.47
2023-04-07T09:17:40.277Z,4.93
2023-04-07T09:20:07.246Z,3.83
2023-04-07T09:22:39.164Z,5.68
2023-04-07T09:25:23.892Z,7.90
2023-04-07T09:28:05.738Z,4.95
2023-04-07T09:30:33.549Z,5.57
2023-04-07T09:33:01.389Z,7.20
2023-04-07T09:35:28.870Z,8.23
2023-04-07T09:38:05.732Z,5.70
2023-04-07T09:40:32.475Z,3.80
2023-04-07T09:42:59.180Z,4.35
2023-04-07T09:45:34.739Z,6.93
2023-04-07T09:48:24.236Z,3.70
2023-04-07T09:50:51.850Z,3.90
2023-04-07T09:53:23.164Z,6.45
2023-04-07T09:55:50.456Z,4.03
2023-04-07T09:58:18.521Z,4.68
2023-04-07T10:00:45.841Z,8.40
2023-04-07T10:03:12.578Z,5.57
2023-04-07T10:05:39.418Z,6.22
2023-04-07T10:08:09.918Z,4.43
2023-04-07T10:10:37.139Z,8.50
2023-04-07T10:13:06.227Z,5.00
2023-04-07T10:15:33.312Z,3.92
2023-04-07T10:18:00.275Z,4.93
2023-04-07T10:20:28.184Z,7.35
2023-04-07T10:23:01.411Z,4.15
2023-04-07T10:25:28.617Z,5.25
2023-04-07T10:28:00.734Z,4.72
2023-04-07T10:32:55.787Z,5.45
2023-04-07T10:35:23.450Z,6.90
2023-04-07T10:38:08.251Z,5.45
2023-04-07T10:40:35.840Z,7.65
2023-04-07T10:43:09.441Z,8.05
2023-04-07T10:45:48.433Z,7.00
2023-04-07T10:48:17.182Z,4.47
2023-04-07T10:50:45.449Z,4.40
2023-04-07T10:53:14.143Z,3.92
2023-04-07T10:55:45.296Z,3.47
2023-04-07T10:58:25.580Z,3.43
2023-04-07T11:01:06.909Z,4.05
2023-04-07T11:03:38.941Z,6.37
2023-04-07T11:06:10.497Z,4.40
2023-04-07T11:08:37.903Z,3.40
2023-04-07T11:11:11.844Z,4.70
2023-04-07T11:13:47.077Z,6.10
2023-04-07T11:16:18.252Z,6.35
2023-04-07T11:18:47.802Z,3.72
2023-04-07T11:21:19.391Z,3.33
2023-04-07T11:23:47.793Z,3.67
2023-04-07T11:26:15.738Z,4.53
2023-04-07T11:28:54.188Z,4.53
2023-04-07T11:31:25.464Z,4.75
2023-04-07T11:33:54.671Z,5.90
2023-04-07T11:36:29.064Z,4.28
2023-04-07T11:38:58.681Z,4.05
2023-04-07T11:41:27.802Z,4.97
2023-04-07T11:44:11.592Z,5.10
2023-04-07T11:46:56.479Z,4.88
2023-04-07T11:49:24.429Z,8.95
2023-04-07T11:51:59.042Z,6.25
2023-04-07T11:54:25.987Z,7.25
2023-04-07T11:56:55.523Z,5.70
2023-04-07T11:59:24.197Z,5.18
2023-04-07T12:01:53.044Z,6.57
2023-04-07T12:04:20.951Z,4.70
2023-04-07T12:06:50.398Z,5.78
2023-04-07T12:09:37.923Z,5.20
2023-04-07T12:12:07.050Z,3.67
2023-04-07T12:14:34.180Z,6.63
2023-04-07T12:17:03.357Z,8.30
2023-04-07T12:19:33.510Z,8.52
2023-04-07T12:22:02.040Z,7.50
2023-04-07T12:24:28.638Z,6.90
2023-04-07T12:26:55.092Z,7.63
2023-04-07T12:29:21.567Z,9.52
2023-04-07T12:31:50.838Z,9.10
2023-04-07T12:34:18.030Z,5.78
2023-04-07T12:36:44.728Z,8.25
2023-04-07T12:39:11.183Z,7.10
2023-04-07T12:41:38.678Z,4.38
2023-04-07T12:44:05.236Z,7.20
2023-04-07T12:46:31.745Z,7.72
2023-04-07T12:48:58.189Z,5.70
2023-04-07T12:51:26.161Z,8.00
2023-04-07T12:53:54.131Z,8.43
2023-04-07T12:56:22.411Z,5.97
2023-04-07T12:58:48.929Z,4.15
2023-04-07T13:01:16.762Z,7.10
2023-04-07T13:03:43.743Z,6.88
2023-04-07T13:06:10.779Z,8.50
2023-04-07T13:08:37.294Z,6.15
2023-04-07T13:11:03.989Z,5.55
2023-04-07T13:13:31.592Z,7.68
2023-04-07T13:15:58.029Z,13.85
2023-04-07T13:18:24.628Z,4.53
2023-04-07T13:21:02.953Z,5.13
2023-04-07T13:23:43.240Z,11.27
2023-04-07T13:26:10.353Z,5.25
2023-04-07T13:28:37.420Z,4.47
2023-04-07T13:31:04.001Z,4.35
2023-04-07T13:33:30.483Z,3.85
2023-04-07T13:35:57.234Z,3.42
2023-04-07T13:38:23.649Z,6.32
2023-04-07T13:40:50.242Z,8.93
2023-04-07T13:43:22.783Z,9.93
2023-04-07T13:45:49.431Z,7.45
2023-04-07T13:48:22.461Z,10.23
2023-04-07T13:50:49.010Z,8.05
2023-04-07T13:53:17.829Z,9.68
2023-04-07T13:55:45.382Z,7.88
2023-04-07T13:58:11.824Z,8.68
2023-04-07T14:00:38.434Z,7.53
2023-04-07T14:03:04.922Z,5.78
2023-04-07T14:05:31.598Z,7.00
2023-04-07T14:07:58.021Z,4.65
2023-04-07T14:10:24.439Z,5.97
2023-04-07T14:12:50.865Z,6.57
2023-04-07T14:15:18.373Z,7.68
2023-04-07T14:17:44.934Z,9.45
2023-04-07T14:20:11.468Z,11.13
2023-04-07T14:22:37.865Z,8.90
2023-04-07T14:25:05.357Z,6.55
2023-04-07T14:27:31.776Z,5.80
2023-04-07T14:29:59.593Z,6.15
2023-04-07T14:32:29.278Z,5.03
2023-04-07T14:34:56.553Z,10.38
2023-04-07T14:37:26.235Z,8.25
2023-04-07T14:40:02.444Z,8.27
2023-04-07T14:42:29.943Z,8.00
2023-04-07T14:44:56.694Z,9.15
2023-04-07T14:47:23.090Z,7.00
2023-04-07T14:49:51.972Z,6.75
2023-04-07T14:52:20.609Z,12.77
2023-04-07T14:54:47.372Z,9.70
2023-04-07T14:57:13.840Z,9.60
2023-04-07T14:59:40.192Z,7.97
2023-04-07T15:02:06.864Z,7.03
2023-04-07T15:04:33.422Z,8.38
2023-04-07T15:06:59.993Z,9.00
2023-04-07T15:09:26.519Z,8.05
2023-04-07T15:11:53.028Z,9.93
2023-04-07T15:14:19.386Z,9.98
2023-04-07T15:16:47.798Z,8.60
2023-04-07T15:19:14.394Z,9.45
2023-04-07T15:21:40.948Z,9.00
2023-04-07T15:24:07.307Z,8.50
2023-04-07T15:26:33.715Z,7.50
2023-04-07T15:29:00.916Z,12.00
2023-04-07T15:31:28.597Z,11.38
2023-04-07T15:33:55.489Z,9.55
2023-04-07T15:36:21.847Z,10.27
2023-04-07T15:38:48.305Z,8.75
2023-04-07T15:41:18.381Z,7.47
2023-04-07T15:43:44.868Z,9.05
2023-04-07T15:46:11.314Z,8.35
2023-04-07T15:48:39.339Z,9.75
2023-04-07T15:51:05.864Z,11.77
2023-04-07T15:53:32.319Z,7.75
2023-04-07T15:55:58.807Z,8.18
2023-04-07T15:58:25.303Z,12.98
2023-04-07T16:00:51.865Z,9.73
2023-04-07T16:03:18.416Z,7.78
2023-04-07T16:05:45.002Z,11.13
2023-04-07T16:08:14.561Z,16.42
2023-04-07T16:10:41.209Z,12.32
2023-04-07T16:13:07.606Z,13.07
2023-04-07T16:15:40.784Z,9.27
2023-04-07T16:18:12.253Z,14.85
2023-04-07T16:20:39.013Z,12.85
2023-04-07T16:23:05.435Z,8.63
2023-04-07T16:25:31.984Z,9.95
2023-04-07T16:27:58.509Z,12.40
2023-04-07T16:30:25.314Z,12.32
2023-04-07T16:32:52.190Z,20.23
2023-04-07T16:35:19.068Z,15.38
2023-04-07T16:37:50.075Z,34.55
2023-04-07T16:40:16.844Z,26.30
2023-04-07T16:42:43.437Z,18.88
2023-04-07T16:45:10.418Z,12.40
2023-04-07T16:47:37.765Z,19.95
2023-04-07T16:50:04.958Z,13.40
2023-04-07T16:52:31.864Z,25.17
2023-04-07T16:54:59.292Z,13.55
2023-04-07T16:57:25.761Z,11.68
2023-04-07T16:59:52.550Z,16.33
2023-04-07T17:02:19.284Z,15.00
2023-04-07T17:04:45.849Z,17.85
2023-04-07T17:07:12.306Z,13.15
2023-04-07T17:09:39.637Z,13.85
2023-04-07T17:12:06.217Z,14.68
2023-04-07T17:14:33.370Z,17.00
2023-04-07T17:16:59.946Z,15.63
2023-04-07T17:19:27.097Z,16.25
2023-04-07T17:21:53.487Z,20.38
2023-04-07T17:24:20.113Z,19.77
2023-04-07T17:26:47.587Z,29.05
2023-04-07T17:29:14.865Z,15.40
2023-04-07T17:31:41.506Z,17.65
2023-04-07T17:34:08.106Z,16.75
2023-04-07T17:36:34.649Z,15.70
2023-04-07T17:39:01.550Z,14.75
2023-04-07T17:41:28.996Z,16.95
2023-04-07T17:43:55.385Z,14.13
2023-04-07T17:46:22.725Z,19.90
2023-04-07T17:48:50.708Z,19.67
2023-04-07T17:51:17.500Z,23.08
2023-04-07T17:53:44.077Z,24.33
2023-04-07T17:56:10.581Z,22.25
2023-04-07T17:58:37.059Z,21.88
2023-04-07T18:01:04.185Z,18.90
2023-04-07T18:03:30.765Z,24.50
2023-04-07T18:05:57.296Z,18.55
2023-04-07T18:08:24.871Z,23.63
2023-04-07T18:10:52.238Z,20.02
2023-04-07T18:13:18.731Z,23.13
2023-04-07T18:15:45.237Z,24.05
2023-04-07T18:18:12.140Z,23.45
2023-04-07T18:20:38.547Z,19.25
2023-04-07T18:23:05.297Z,25.58
2023-04-07T18:25:31.706Z,23.35
2023-04-07T18:27:58.857Z,20.80
2023-04-07T18:30:25.433Z,24.95
2023-04-07T18:32:51.878Z,19.95
2023-04-07T18:35:18.354Z,20.63
2023-04-07T18:37:44.749Z,27.15
2023-04-07T18:40:11.782Z,20.33
2023-04-07T18:42:38.326Z,26.35
2023-04-07T18:45:05.298Z,21.42
2023-04-07T18:47:31.807Z,20.10
2023-04-07T18:49:58.595Z,19.95
2023-04-07T18:52:26.539Z,26.75
2023-04-07T18:54:53.068Z,25.60
2023-04-07T18:57:19.603Z,24.48
2023-04-07T18:59:46.031Z,21.10
2023-04-07T19:02:12.669Z,23.10
2023-04-07T19:04:39.651Z,20.15
2023-04-07T19:07:06.155Z,20.02
2023-04-07T19:09:33.271Z,25.30
2023-04-07T19:12:00.172Z,32.60
2023-04-07T19:14:26.618Z,29.35
2023-04-07T19:16:53.274Z,28.85
2023-04-07T19:19:19.764Z,27.55
2023-04-07T19:21:48.643Z,23.00
2023-04-07T19:24:15.613Z,26.10
2023-04-07T19:26:42.916Z,28.00
2023-04-07T19:29:11.627Z,30.15
2023-04-07T19:31:39.041Z,30.45
2023-04-07T19:34:05.472Z,30.52
2023-04-07T19:36:32.824Z,24.25
2023-04-07T19:38:59.423Z,22.48
2023-04-07T19:41:26.099Z,30.20
2023-04-07T19:43:53.262Z,48.10
2023-04-07T19:46:19.756Z,67.72
2023-04-07T19:48:46.884Z,100.10
2023-04-07T19:51:13.379Z,33.08
2023-04-07T19:53:39.732Z,27.35
2023-04-07T19:56:06.194Z,27.17
2023-04-07T19:58:34.232Z,26.75
2023-04-07T20:01:00.934Z,27.50
2023-04-07T20:03:27.621Z,25.88
2023-04-07T20:05:54.430Z,25.52
2023-04-07T20:08:21.282Z,25.40
2023-04-07T20:10:51.089Z,25.10
2023-04-07T20:13:17.481Z,27.98
2023-04-07T20:15:44.022Z,27.90
2023-04-07T20:18:11.140Z,26.05
2023-04-07T20:20:39.029Z,27.20
2023-04-07T20:23:05.432Z,32.53
2023-04-07T20:25:31.862Z,35.10
2023-04-07T20:27:58.404Z,29.80
2023-04-07T20:30:24.874Z,27.17
2023-04-07T20:32:51.269Z,24.27
2023-04-07T20:35:18.360Z,25.08
2023-04-07T20:37:45.275Z,26.02
2023-04-07T20:40:12.210Z,26.13
2023-04-07T20:42:39.040Z,27.80
2023-04-07T20:45:06.587Z,26.60
2023-04-07T20:47:35.874Z,26.17
2023-04-07T20:50:02.394Z,25.25
2023-04-07T20:52:30.040Z,26.60
2023-04-07T20:54:56.522Z,25.13
2023-04-07T20:57:23.011Z,27.13
2023-04-07T20:59:49.694Z,24.45
2023-04-07T21:02:16.393Z,28.42
2023-04-07T21:04:42.902Z,29.20
2023-04-07T21:07:10.426Z,26.98
2023-04-07T21:09:36.881Z,25.75
2023-04-07T21:12:04.308Z,30.23
2023-04-07T21:14:31.834Z,24.27
2023-04-07T21:16:58.854Z,34.42
2023-04-07T21:19:25.371Z,31.45
2023-04-07T21:21:51.773Z,29.02
2023-04-07T21:24:18.158Z,38.03
2023-04-07T21:26:44.626Z,28.70
2023-04-07T21:29:11.136Z,32.08
2023-04-07T21:31:37.692Z,28.30
2023-04-07T21:34:04.254Z,27.83
2023-04-07T21:36:31.950Z,28.33
2023-04-07T21:38:58.789Z,27.08
2023-04-07T21:41:25.410Z,27.63
2023-04-07T21:43:52.201Z,27.65
2023-04-07T21:46:19.073Z,27.17
2023-04-07T21:48:45.685Z,28.85
2023-04-07T21:51:12.316Z,30.15
2023-04-07T21:53:38.676Z,26.77
2023-04-07T21:56:05.239Z,25.17
2023-04-07T21:58:31.706Z,28.17
2023-04-07T22:00:58.174Z,26.60
2023-04-07T22:03:24.698Z,25.33
2023-04-07T22:05:51.550Z,25.20
2023-04-07T22:08:17.958Z,28.17
2023-04-07T22:10:44.416Z,29.00
2023-04-07T22:13:10.812Z,25.77
2023-04-07T22:15:37.202Z,27.85
2023-04-07T22:18:03.857Z,26.15
2023-04-07T22:20:30.349Z,24.80
2023-04-07T22:22:57.837Z,25.48
2023-04-07T22:25:25.502Z,23.48
2023-04-07T22:27:52.603Z,27.83
2023-04-07T22:30:19.906Z,25.83
2023-04-07T22:32:46.496Z,25.00
2023-04-07T22:35:13.075Z,23.20
2023-04-07T22:37:39.471Z,22.92
2023-04-07T22:40:06.557Z,26.65
2023-04-07T22:42:33.159Z,24.10
2023-04-07T22:44:59.664Z,25.85
2023-04-07T22:47:26.567Z,25.42
2023-04-07T22:49:53.037Z,24.75
2023-04-07T22:52:19.498Z,24.08
2023-04-07T22:54:45.872Z,26.00
2023-04-07T22:57:12.252Z,28.27
2023-04-07T22:59:38.669Z,23.40
2023-04-07T23:02:05.209Z,22.25
2023-04-07T23:04:31.691Z,19.90
2023-04-07T23:06:58.036Z,24.08
2023-04-07T23:09:24.387Z,24.88
2023-04-07T23:11:50.812Z,26.08
2023-04-07T23:14:17.208Z,22.08
2023-04-07T23:16:43.753Z,23.38
2023-04-07T23:19:15.564Z,26.50
2023-04-07T23:21:42.825Z,24.50
2023-04-07T23:24:09.752Z,23.77
2023-04-07T23:26:38.642Z,29.13
2023-04-07T23:29:05.066Z,27.35
2023-04-07T23:31:31.630Z,26.05
2023-04-07T23:33:59.651Z,27.67
2023-04-07T23:36:27.065Z,22.75
2023-04-07T23:38:55.197Z,26.58
2023-04-07T23:41:22.295Z,78.05
2023-04-07T23:43:48.783Z,49.80
2023-04-07T23:46:15.575Z,47.35
2023-04-07T23:48:42.416Z,27.08
2023-04-07T23:51:08.862Z,26.10
2023-04-07T23:53:35.270Z,23.30
2023-04-07T23:56:01.642Z,24.05
2023-04-07T23:58:28.073Z,24.38
